Time;durP1;ratioP1;P1;durP2;ratioP2;P2;SDS_P1;SDS_P2;PMS_P1;PMS_P2;Temp;Humidity;BMP_temperature;BMP_pressure;BME280_temperature;BME280_humidity;BME280_pressure;Samples;Min_cycle;Max_cycle;Signal;HPM_P1;HPM_P2
2021/03/10 00:00:06;;;;;;;16.50;10.50;;;;;;;6.34;51.30;101442.66;352230;28;1302;-73
2021/03/10 00:00:18;;;;;;;18.40;10.90;;;;;;;6.29;51.76;101447.13;350730;28;48557;-73
2021/03/10 00:00:29;;;;;;;17.10;11.02;;;;;;;6.26;51.36;101445.44;352344;28;1060;-71
2021/03/10 00:00:40;;;;;;;16.25;10.65;;;;;;;6.32;51.25;101446.22;352369;28;1076;-73
2021/03/10 00:00:51;;;;;;;16.13;10.65;;;;;;;6.36;50.65;101453.13;352240;28;1205;-73
2021/03/10 00:01:02;;;;;;;16.77;10.63;;;;;;;6.42;50.86;101450.41;352339;28;1029;-74
2021/03/10 00:01:13;;;;;;;17.08;10.77;;;;;;;6.42;51.12;101445.16;352346;28;1094;-72
2021/03/10 00:01:25;;;;;;;17.30;10.60;;;;;;;6.39;50.59;101439.97;351725;28;1084;-73
2021/03/10 00:01:36;;;;;;;18.13;10.50;;;;;;;6.37;51.00;101441.75;351061;28;1129;-73
2021/03/10 00:01:48;;;;;;;17.63;10.90;;;;;;;6.36;51.97;101450.50;350964;28;1060;-72
2021/03/10 00:01:59;;;;;;;15.35;11.00;;;;;;;6.34;50.46;101444.44;351055;28;1184;-73
2021/03/10 00:02:11;;;;;;;15.40;10.84;;;;;;;6.39;51.59;101447.84;351122;28;1089;-73
2021/03/10 00:02:22;;;;;;;16.42;10.65;;;;;;;6.42;52.08;101450.41;350999;28;1126;-73
2021/03/10 00:02:46;;;;;;;17.76;10.48;;;;;;;6.44;51.06;101438.13;347730;28;93540;-73
2021/03/10 00:02:58;;;;;;;18.20;10.65;;;;;;;6.45;49.91;101445.09;350961;28;1186;-73
2021/03/10 00:03:09;;;;;;;17.05;10.52;;;;;;;6.49;51.94;101452.03;351077;28;1068;-73
2021/03/10 00:03:20;;;;;;;14.85;10.55;;;;;;;6.48;51.92;101441.56;350947;28;1065;-73
2021/03/10 00:03:32;;;;;;;17.15;10.93;;;;;;;6.49;50.23;101445.91;350850;28;1918;-73
2021/03/10 00:03:43;;;;;;;18.60;11.05;;;;;;;6.52;50.90;101445.84;350884;28;1072;-72
2021/03/10 00:03:54;;;;;;;16.90;10.52;;;;;;;6.51;50.26;101446.75;350986;28;1168;-73
2021/03/10 00:04:05;;;;;;;15.20;10.13;;;;;;;6.45;50.25;101445.09;351057;28;1168;-73
2021/03/10 00:04:16;;;;;;;15.02;10.30;;;;;;;6.43;51.92;101441.66;350962;28;1022;-74
2021/03/10 00:04:27;;;;;;;16.10;10.20;;;;;;;6.45;50.63;101447.72;350879;28;1065;-73
2021/03/10 00:04:39;;;;;;;16.38;10.40;;;;;;;6.43;50.14;101446.91;350744;28;1067;-73
2021/03/10 00:04:50;;;;;;;16.42;10.68;;;;;;;6.34;51.72;101449.69;350756;28;1065;-72
2021/03/10 00:05:01;;;;;;;16.02;10.68;;;;;;;6.27;51.37;101438.44;350099;28;1660;-73
2021/03/10 00:05:13;;;;;;;14.60;10.35;;;;;;;6.28;50.46;101443.66;350698;28;1205;-73
2021/03/10 00:05:24;;;;;;;13.68;10.10;;;;;;;6.34;51.30;101441.81;350868;28;1174;-73
2021/03/10 00:05:35;;;;;;;14.88;10.05;;;;;;;6.32;50.51;101447.09;350971;28;1189;-72
2021/03/10 00:05:47;;;;;;;15.82;10.18;;;;;;;6.32;51.73;101443.59;351063;28;1184;-73
2021/03/10 00:05:58;;;;;;;16.80;10.45;;;;;;;6.35;52.04;101449.66;351037;28;1110;-73
2021/03/10 00:06:09;;;;;;;16.77;10.65;;;;;;;6.36;50.42;101443.53;351083;28;1144;-73
2021/03/10 00:06:20;;;;;;;16.42;10.85;;;;;;;6.37;51.10;101442.59;351097;28;1275;-73
2021/03/10 00:06:31;;;;;;;14.80;10.50;;;;;;;6.39;50.96;101445.22;350924;28;1228;-73
2021/03/10 00:06:42;;;;;;;13.63;9.95;;;;;;;6.37;50.92;101434.75;351049;28;1291;-73
2021/03/10 00:06:53;;;;;;;14.50;10.23;;;;;;;6.43;51.44;101439.03;351040;28;1084;-74
2021/03/10 00:07:08;;;;;;;14.40;10.43;;;;;;;6.39;52.05;101446.09;349431;28;48120;-74
2021/03/10 00:07:19;;;;;;;14.57;10.40;;;;;;;6.39;50.45;101439.97;350990;28;1069;-73
2021/03/10 00:07:31;;;;;;;15.35;10.55;;;;;;;6.37;51.23;101439.97;351077;28;1040;-73
2021/03/10 00:07:42;;;;;;;14.98;10.50;;;;;;;6.43;51.83;101446.91;351020;28;1028;-73
2021/03/10 00:07:53;;;;;;;15.98;10.65;;;;;;;6.44;51.21;101439.00;351076;28;1147;-73
2021/03/10 00:08:05;;;;;;;16.55;10.65;;;;;;;6.47;51.49;101439.81;352303;28;1314;-73
2021/03/10 00:08:16;;;;;;;17.83;10.48;;;;;;;6.45;51.58;101438.09;352269;28;1147;-73
2021/03/10 00:08:27;;;;;;;17.40;10.48;;;;;;;6.47;50.90;101438.09;352310;28;1093;-73
2021/03/10 00:08:38;;;;;;;16.33;10.52;;;;;;;6.46;51.10;101438.97;352407;28;1199;-73
2021/03/10 00:08:50;;;;;;;16.02;10.55;;;;;;;6.46;50.96;101438.97;352331;28;1084;-73
2021/03/10 00:09:01;;;;;;;17.30;10.65;;;;;;;6.44;51.20;101436.38;352355;28;1073;-73
2021/03/10 00:09:13;;;;;;;17.05;10.70;;;;;;;6.44;51.92;101433.75;350807;28;1057;-73
2021/03/10 00:09:24;;;;;;;16.52;10.75;;;;;;;6.44;52.08;101438.13;350911;28;1052;-73
2021/03/10 00:09:35;;;;;;;14.88;10.27;;;;;;;6.45;50.63;101431.97;350974;28;1077;-73
2021/03/10 00:09:46;;;;;;;14.55;10.05;;;;;;;6.42;51.34;101429.41;350965;28;1037;-73
2021/03/10 00:09:58;;;;;;;15.18;10.50;;;;;;;6.42;50.23;101432.03;350921;28;1162;-73
2021/03/10 00:10:10;;;;;;;15.45;10.52;;;;;;;6.43;51.64;101436.41;350873;28;1219;-73
2021/03/10 00:10:21;;;;;;;15.60;10.48;;;;;;;6.42;50.26;101429.41;350928;28;1139;-73
2021/03/10 00:10:32;;;;;;;14.23;10.18;;;;;;;6.42;51.38;101424.19;350862;28;1209;-73
2021/03/10 00:10:45;;;;;;;13.95;10.10;;;;;;;6.44;51.25;101432.88;350986;28;1148;-72
2021/03/10 00:10:56;;;;;;;15.16;10.14;;;;;;;6.45;51.13;101429.34;350948;28;1151;-73
2021/03/10 00:11:07;;;;;;;14.68;10.10;;;;;;;6.45;51.58;101432.84;350844;28;1085;-72
2021/03/10 00:11:19;;;;;;;16.00;10.45;;;;;;;6.45;50.65;101424.97;350991;28;1130;-73
2021/03/10 00:11:30;;;;;;;18.63;10.40;;;;;;;6.47;50.48;101430.22;351077;28;2363;-73
2021/03/10 00:11:42;;;;;;;18.17;10.35;;;;;;;6.49;51.04;101431.03;350985;28;1053;-72
2021/03/10 00:11:53;;;;;;;15.98;10.27;;;;;;;6.47;51.72;101435.47;350934;28;1069;-73
2021/03/10 00:12:05;;;;;;;15.32;10.52;;;;;;;6.45;51.68;101432.84;350863;28;1137;-74
2021/03/10 00:12:16;;;;;;;17.83;10.80;;;;;;;6.44;50.47;101436.38;350854;28;1096;-73
2021/03/10 00:12:27;;;;;;;18.15;10.88;;;;;;;6.48;51.62;101433.69;350860;28;1021;-72
2021/03/10 00:12:40;;;;;;;17.98;10.88;;;;;;;6.50;50.14;101434.50;350980;28;1245;-73
2021/03/10 00:12:51;;;;;;;17.15;10.57;;;;;;;6.49;51.55;101432.81;350945;28;1088;-73
2021/03/10 00:13:02;;;;;;;18.60;10.85;;;;;;;6.50;50.93;101430.13;350844;28;1081;-73
2021/03/10 00:13:13;;;;;;;18.52;10.90;;;;;;;6.53;50.57;101434.47;350989;28;1156;-74
2021/03/10 00:13:24;;;;;;;18.98;11.02;;;;;;;6.53;50.21;101435.31;350950;28;1081;-73
2021/03/10 00:13:35;;;;;;;17.70;10.65;;;;;;;6.55;50.25;101436.19;350955;28;1018;-73
2021/03/10 00:13:46;;;;;;;16.25;10.60;;;;;;;6.53;50.80;101443.19;351025;28;1192;-73
2021/03/10 00:13:58;;;;;;;15.20;10.40;;;;;;;6.54;50.66;101437.06;350876;28;1069;-72
2021/03/10 00:14:09;;;;;;;15.65;10.35;;;;;;;6.53;51.92;101437.94;351041;28;1193;-71
2021/03/10 00:14:20;;;;;;;15.73;10.40;;;;;;;6.55;51.57;101435.28;350998;28;1137;-74
2021/03/10 00:14:31;;;;;;;16.40;10.52;;;;;;;6.52;50.46;101436.22;351046;28;1065;-75
2021/03/10 00:14:42;;;;;;;15.63;10.63;;;;;;;6.54;50.52;101438.81;351093;28;1145;-76
2021/03/10 00:14:53;;;;;;;15.90;10.48;;;;;;;6.54;50.02;101444.94;350960;28;1061;-74
2021/03/10 00:15:06;;;;;;;15.40;10.43;;;;;;;6.54;50.29;101434.44;351094;28;1102;-73
2021/03/10 00:15:17;;;;;;;18.35;10.35;;;;;;;6.55;51.11;101435.28;351026;28;1117;-73
2021/03/10 00:15:29;;;;;;;18.90;10.43;;;;;;;6.54;50.43;101433.56;351058;28;1060;-74
2021/03/10 00:15:40;;;;;;;17.40;10.50;;;;;;;6.54;51.22;101437.06;351041;28;1176;-73
2021/03/10 00:15:51;;;;;;;16.85;10.68;;;;;;;6.56;51.77;101434.41;350988;28;1140;-73
2021/03/10 00:16:03;;;;;;;17.13;10.70;;;;;;;6.56;51.28;101439.66;351020;28;1110;-73
2021/03/10 00:16:14;;;;;;;17.50;10.77;;;;;;;6.58;51.34;101435.22;351021;28;1032;-73
2021/03/10 00:16:25;;;;;;;18.83;10.60;;;;;;;6.59;50.29;101439.59;350866;28;1063;-73
2021/03/10 00:16:37;;;;;;;18.20;10.65;;;;;;;6.57;51.60;101439.63;350988;28;990;-72
2021/03/10 00:16:48;;;;;;;17.25;10.50;;;;;;;6.52;49.79;101444.09;350947;28;1176;-72
2021/03/10 00:17:00;;;;;;;15.35;10.27;;;;;;;6.52;50.52;101444.09;351062;28;1176;-74
2021/03/10 00:17:11;;;;;;;14.70;10.07;;;;;;;6.54;51.20;101433.56;351002;28;1052;-72
2021/03/10 00:17:24;;;;;;;14.88;10.10;;;;;;;6.51;51.20;101444.13;350848;28;1146;-73
2021/03/10 00:17:35;;;;;;;15.32;10.30;;;;;;;6.44;50.60;101432.88;350839;28;2157;-73
2021/03/10 00:17:47;;;;;;;15.10;10.38;;;;;;;6.47;51.31;101435.47;350866;28;1129;-73
2021/03/10 00:17:58;;;;;;;15.73;10.32;;;;;;;6.51;51.88;101438.88;350838;28;1098;-73
2021/03/10 00:18:09;;;;;;;15.74;10.54;;;;;;;6.49;51.52;101441.53;350992;28;1191;-74
2021/03/10 00:18:21;;;;;;;16.33;10.32;;;;;;;6.44;51.36;101436.38;350871;28;1065;-73
2021/03/10 00:18:32;;;;;;;16.70;10.40;;;;;;;6.45;51.78;101435.47;350824;28;1212;-72
2021/03/10 00:18:43;;;;;;;16.20;10.27;;;;;;;6.47;50.78;101438.09;350916;28;1081;-73
2021/03/10 00:18:54;;;;;;;15.10;10.10;;;;;;;6.48;50.68;101439.78;350955;28;1168;-73
2021/03/10 00:19:05;;;;;;;14.85;10.13;;;;;;;6.47;51.53;101440.72;350951;28;1139;-73
2021/03/10 00:19:17;;;;;;;14.65;10.23;;;;;;;6.49;51.24;101441.53;350938;28;1163;-72
2021/03/10 00:19:28;;;;;;;15.95;10.52;;;;;;;6.48;51.90;101441.56;350971;28;1044;-73
2021/03/10 00:19:41;;;;;;;16.58;10.45;;;;;;;6.50;50.70;101438.00;351042;28;1060;-73
2021/03/10 00:19:52;;;;;;;16.75;10.50;;;;;;;6.52;50.93;101438.84;351030;28;1055;-73
2021/03/10 00:20:08;;;;;;;16.48;10.25;;;;;;;6.53;50.71;101439.72;351012;28;1074;-73
2021/03/10 00:20:19;;;;;;;15.80;10.20;;;;;;;6.54;51.24;101438.81;348642;28;71872;-72
2021/03/10 00:20:30;;;;;;;15.15;10.02;;;;;;;6.54;51.54;101437.06;350839;28;1144;-72
2021/03/10 00:20:41;;;;;;;14.55;10.00;;;;;;;6.53;50.12;101435.31;350922;28;1197;-73
2021/03/10 00:20:52;;;;;;;15.15;10.25;;;;;;;6.56;51.16;101437.88;350900;28;1193;-72
2021/03/10 00:21:04;;;;;;;15.38;10.48;;;;;;;6.56;50.73;101443.13;350904;28;1228;-71
2021/03/10 00:21:15;;;;;;;17.75;10.52;;;;;;;6.55;50.31;101441.44;350916;28;1146;-73
2021/03/10 00:21:26;;;;;;;18.13;10.80;;;;;;;6.55;50.72;101435.28;350792;28;1084;-73
2021/03/10 00:21:37;;;;;;;16.08;10.40;;;;;;;6.55;51.66;101435.28;350919;28;1157;-73
2021/03/10 00:21:49;;;;;;;14.05;10.18;;;;;;;6.56;50.68;101437.03;350971;28;1188;-73
2021/03/10 00:22:00;;;;;;;14.70;10.13;;;;;;;6.56;50.86;101443.13;350897;28;1134;-73
2021/03/10 00:22:11;;;;;;;16.10;10.50;;;;;;;6.56;51.22;101435.25;350922;28;1130;-73
2021/03/10 00:22:23;;;;;;;16.02;10.48;;;;;;;6.54;50.61;101434.44;350789;28;1220;-72
2021/03/10 00:22:34;;;;;;;15.23;10.43;;;;;;;6.52;50.16;101437.97;350912;28;1093;-74
2021/03/10 00:22:45;;;;;;;15.13;10.32;;;;;;;6.49;51.32;101441.53;351065;28;1221;-73
2021/03/10 00:22:56;;;;;;;16.42;10.55;;;;;;;6.49;51.39;101436.28;352401;28;1155;-73
2021/03/10 00:23:07;;;;;;;17.27;10.57;;;;;;;6.48;50.74;101433.69;352332;28;1193;-73
2021/03/10 00:23:18;;;;;;;16.48;10.48;;;;;;;6.51;49.96;101442.38;352241;28;1115;-73
2021/03/10 00:23:29;;;;;;;15.00;10.38;;;;;;;6.53;50.28;101435.31;352285;28;1199;-73
2021/03/10 00:23:41;;;;;;;14.43;10.20;;;;;;;6.55;50.51;101437.91;352312;28;1150;-73
2021/03/10 00:23:52;;;;;;;15.60;10.05;;;;;;;6.55;51.73;101436.19;352324;28;1188;-73
2021/03/10 00:24:03;;;;;;;17.67;10.07;;;;;;;6.56;51.70;101437.88;352291;28;2016;-73
2021/03/10 00:24:14;;;;;;;17.65;10.13;;;;;;;6.55;50.22;101444.06;352217;28;1049;-73
2021/03/10 00:24:25;;;;;;;14.90;9.82;;;;;;;6.54;50.79;101439.69;352279;28;1193;-73
2021/03/10 00:24:37;;;;;;;13.13;9.70;;;;;;;6.57;51.61;101441.38;350880;28;1133;-74
2021/03/10 00:24:48;;;;;;;12.94;9.44;;;;;;;6.54;51.41;101431.81;350851;28;1057;-73
2021/03/10 00:24:59;;;;;;;14.70;9.70;;;;;;;6.55;49.79;101436.19;349503;28;1189;-73
2021/03/10 00:25:11;;;;;;;15.18;9.77;;;;;;;6.58;51.35;101438.72;349404;28;1017;-73
2021/03/10 00:25:22;;;;;;;15.48;10.48;;;;;;;6.58;50.88;101433.47;350885;28;1120;-72
2021/03/10 00:25:33;;;;;;;14.32;10.10;;;;;;;6.59;50.84;101437.84;350857;28;1132;-73
2021/03/10 00:25:44;;;;;;;15.18;10.30;;;;;;;6.61;50.85;101440.44;350953;28;1073;-74
2021/03/10 00:25:55;;;;;;;15.15;10.02;;;;;;;6.61;51.50;101430.78;350976;28;1128;-73
2021/03/10 00:26:06;;;;;;;15.68;10.35;;;;;;;6.61;50.72;101435.19;350881;28;1049;-73
2021/03/10 00:26:17;;;;;;;15.48;10.35;;;;;;;6.62;51.15;101437.78;350924;28;1068;-72
2021/03/10 00:26:28;;;;;;;14.88;10.48;;;;;;;6.60;50.62;101439.56;350874;28;1337;-72
2021/03/10 00:26:40;;;;;;;15.20;10.48;;;;;;;6.61;50.24;101437.81;352299;28;1139;-73
2021/03/10 00:26:51;;;;;;;15.43;10.35;;;;;;;6.60;51.79;101433.44;352322;28;1165;-73
2021/03/10 00:27:03;;;;;;;16.86;10.36;;;;;;;6.59;50.07;101437.84;352215;28;1077;-73
2021/03/10 00:27:23;;;;;;;16.85;10.23;;;;;;;6.59;50.54;101436.97;352300;28;1053;-72
2021/03/10 00:27:34;;;;;;;17.05;10.27;;;;;;;6.55;50.85;101433.56;348554;28;71769;-74
2021/03/10 00:27:46;;;;;;;18.08;10.48;;;;;;;6.54;50.23;101431.81;350970;28;1079;-72
2021/03/10 00:27:57;;;;;;;18.75;10.57;;;;;;;6.54;50.32;101429.19;350934;28;1186;-73
2021/03/10 00:28:09;;;;;;;18.30;10.73;;;;;;;6.55;51.20;101433.56;351048;28;1156;-73
2021/03/10 00:28:21;;;;;;;17.48;10.25;;;;;;;6.58;49.99;101429.97;351008;28;1161;-73
2021/03/10 00:28:32;;;;;;;17.08;10.32;;;;;;;6.55;51.52;101425.69;350905;28;1114;-73
2021/03/10 00:28:43;;;;;;;15.15;10.45;;;;;;;6.58;50.16;101433.47;350992;28;1200;-73
2021/03/10 00:28:54;;;;;;;15.90;10.88;;;;;;;6.58;49.97;101435.22;350938;28;1064;-74
2021/03/10 00:29:05;;;;;;;16.77;10.63;;;;;;;6.59;50.55;101431.72;351054;28;1175;-73
2021/03/10 00:29:16;;;;;;;16.85;10.27;;;;;;;6.59;50.41;101432.59;350909;28;1162;-72
2021/03/10 00:29:27;;;;;;;15.80;10.32;;;;;;;6.61;51.60;101440.44;350913;28;1029;-73
2021/03/10 00:29:38;;;;;;;16.14;10.36;;;;;;;6.60;51.13;101436.94;350833;28;1133;-73
2021/03/10 00:29:55;;;;;;;16.50;10.40;;;;;;;6.62;50.30;101434.28;350853;28;1131;-72
2021/03/10 00:30:10;;;;;;;15.32;10.05;;;;;;;6.61;50.85;101436.03;348482;28;72029;-72
2021/03/10 00:30:21;;;;;;;15.73;10.07;;;;;;;6.61;50.61;101433.41;349299;28;48358;-73
2021/03/10 00:30:32;;;;;;;16.92;10.60;;;;;;;6.60;50.00;101436.94;350839;28;1048;-73
2021/03/10 00:30:43;;;;;;;17.33;10.70;;;;;;;6.61;51.28;101429.94;350873;28;1163;-74
2021/03/10 00:30:54;;;;;;;15.98;10.70;;;;;;;6.62;50.94;101434.28;350900;28;1403;-74
2021/03/10 00:31:05;;;;;;;15.70;10.32;;;;;;;6.62;51.37;101437.78;350951;28;1112;-73
2021/03/10 00:31:17;;;;;;;16.13;10.70;;;;;;;6.58;50.91;101428.22;351020;28;1166;-73
2021/03/10 00:31:28;;;;;;;18.30;10.75;;;;;;;6.59;51.34;101432.59;351000;28;1170;-73
2021/03/10 00:31:39;;;;;;;16.20;10.60;;;;;;;6.61;51.42;101438.66;350878;28;1077;-73
2021/03/10 00:31:50;;;;;;;15.00;10.30;;;;;;;6.60;50.64;101439.56;350968;28;1068;-72
2021/03/10 00:32:02;;;;;;;14.85;10.38;;;;;;;6.59;51.10;101442.22;350949;28;1825;-73
2021/03/10 00:32:13;;;;;;;16.63;10.55;;;;;;;6.57;51.08;101437.00;351039;28;1180;-73
2021/03/10 00:32:27;;;;;;;15.95;10.57;;;;;;;6.57;50.01;101434.38;350945;28;1110;-73
2021/03/10 00:32:39;;;;;;;15.23;10.40;;;;;;;6.56;51.09;101432.63;350050;28;23953;-72
2021/03/10 00:33:10;;;;;;;14.88;10.73;;;;;;;6.58;51.39;101441.34;349752;28;36072;-73
2021/03/10 00:33:21;;;;;;;16.06;11.02;;;;;;;6.57;51.00;101436.16;351033;28;1149;-73
2021/03/10 00:33:33;;;;;;;15.55;10.82;;;;;;;6.58;50.22;101443.97;352224;28;1084;-73
2021/03/10 00:33:44;;;;;;;15.57;10.55;;;;;;;6.58;50.97;101436.09;352263;28;1176;-73
2021/03/10 00:33:55;;;;;;;15.57;10.48;;;;;;;6.59;49.94;101444.84;352335;28;1055;-73
2021/03/10 00:34:06;;;;;;;15.27;10.65;;;;;;;6.58;50.42;101445.72;352329;28;1303;-73
2021/03/10 00:34:17;;;;;;;16.75;10.77;;;;;;;6.57;51.50;101434.38;352370;28;1336;-73
2021/03/10 00:34:28;;;;;;;17.65;10.80;;;;;;;6.60;50.27;101438.69;352177;28;1044;-73
2021/03/10 00:34:39;;;;;;;16.95;10.65;;;;;;;6.59;50.23;101443.09;352220;28;1163;-74
2021/03/10 00:34:50;;;;;;;14.38;10.32;;;;;;;6.59;51.05;101442.22;350818;28;2176;-72
2021/03/10 00:35:03;;;;;;;13.20;10.00;;;;;;;6.60;51.33;101436.06;350230;28;1984;-73
2021/03/10 00:35:14;;;;;;;14.32;10.45;;;;;;;6.58;51.36;101443.97;351333;28;1185;-73
2021/03/10 00:35:25;;;;;;;15.98;10.88;;;;;;;6.55;51.38;101443.16;350762;28;1164;-73
2021/03/10 00:35:40;;;;;;;16.42;10.90;;;;;;;6.53;51.84;101437.09;350081;28;24189;-73
2021/03/10 00:35:51;;;;;;;16.50;11.10;;;;;;;6.52;51.07;101441.47;350867;28;1079;-73
2021/03/10 00:36:02;;;;;;;15.90;10.80;;;;;;;6.50;50.05;101439.75;350893;28;1243;-73
2021/03/10 00:36:13;;;;;;;16.88;10.90;;;;;;;6.45;50.14;101434.59;350931;28;1092;-72
2021/03/10 00:36:24;;;;;;;16.52;10.63;;;;;;;6.45;51.67;101434.59;350845;28;1197;-73
2021/03/10 00:36:35;;;;;;;16.10;10.50;;;;;;;6.44;52.15;101432.88;350844;28;1147;-73
2021/03/10 00:36:46;;;;;;;15.57;10.55;;;;;;;6.48;50.97;101438.94;350965;28;1118;-73
2021/03/10 00:36:58;;;;;;;15.92;10.82;;;;;;;6.47;51.87;101439.81;351014;28;2072;-73
2021/03/10 00:37:09;;;;;;;16.33;10.73;;;;;;;6.47;50.44;101438.09;351004;28;1130;-73
2021/03/10 00:37:21;;;;;;;16.33;10.55;;;;;;;6.47;50.88;101437.19;350913;28;1110;-73
2021/03/10 00:37:32;;;;;;;17.10;10.27;;;;;;;6.45;51.33;101435.47;350848;28;1261;-73
2021/03/10 00:37:44;;;;;;;17.52;10.27;;;;;;;6.50;50.92;101432.75;350948;28;1140;-74
2021/03/10 00:37:57;;;;;;;17.05;10.27;;;;;;;6.50;51.15;101434.50;351016;28;1112;-71
2021/03/10 00:38:08;;;;;;;15.95;10.52;;;;;;;6.50;51.34;101438.00;350937;28;1163;-72
2021/03/10 00:38:19;;;;;;;16.14;10.48;;;;;;;6.48;52.18;101428.44;350958;28;1065;-73
2021/03/10 00:38:30;;;;;;;17.38;10.38;;;;;;;6.46;51.62;101436.34;351044;28;1167;-73
2021/03/10 00:38:41;;;;;;;18.33;10.82;;;;;;;6.47;51.58;101430.22;350906;28;1243;-73
2021/03/10 00:38:52;;;;;;;17.67;10.90;;;;;;;6.48;50.71;101429.28;351030;28;1088;-73
2021/03/10 00:39:03;;;;;;;16.70;10.73;;;;;;;6.47;51.76;101432.84;350982;28;1060;-72
2021/03/10 00:39:14;;;;;;;15.32;10.32;;;;;;;6.47;51.06;101434.56;350954;28;1198;-73
2021/03/10 00:39:25;;;;;;;15.58;10.62;;;;;;;6.48;51.32;101428.44;351012;28;1076;-73
2021/03/10 00:39:36;;;;;;;15.20;10.55;;;;;;;6.45;51.79;101429.34;351056;28;1185;-73
2021/03/10 00:39:49;;;;;;;14.18;10.30;;;;;;;6.43;51.91;101428.53;350954;28;1040;-74
2021/03/10 00:40:00;;;;;;;14.45;10.32;;;;;;;6.43;51.92;101439.03;350811;28;1277;-72
2021/03/10 00:40:11;;;;;;;14.70;10.55;;;;;;;6.43;52.04;101426.75;350830;28;1247;-73
2021/03/10 00:40:22;;;;;;;14.65;10.43;;;;;;;6.45;51.46;101424.09;350932;28;1335;-71
2021/03/10 00:40:34;;;;;;;14.68;10.45;;;;;;;6.47;50.50;101431.94;350918;28;1151;-73
2021/03/10 00:40:47;;;;;;;14.48;10.45;;;;;;;6.47;51.51;101427.59;350048;28;24047;-74
2021/03/10 00:40:58;;;;;;;14.77;10.38;;;;;;;6.47;51.23;101429.31;350812;28;1129;-72
2021/03/10 00:41:10;;;;;;;14.82;10.43;;;;;;;6.47;50.64;101432.84;350895;28;2013;-72
2021/03/10 00:41:21;;;;;;;15.02;10.77;;;;;;;6.44;51.07;101428.50;350938;28;1061;-72
2021/03/10 00:41:32;;;;;;;15.70;10.95;;;;;;;6.45;51.30;101431.97;350851;28;1001;-72
2021/03/10 00:41:43;;;;;;;17.08;10.80;;;;;;;6.45;51.90;101430.22;350885;28;1088;-73
2021/03/10 00:41:54;;;;;;;18.60;10.90;;;;;;;6.44;51.03;101427.63;350817;28;1061;-73
2021/03/10 00:42:06;;;;;;;17.58;10.85;;;;;;;6.39;52.21;101430.34;350929;28;1109;-73
2021/03/10 00:42:18;;;;;;;16.85;10.68;;;;;;;6.37;50.89;101432.13;351036;28;1088;-73
2021/03/10 00:42:29;;;;;;;16.05;10.40;;;;;;;6.38;51.31;101422.50;351017;28;1164;-73
2021/03/10 00:42:40;;;;;;;16.77;10.50;;;;;;;6.39;50.48;101426.88;350972;28;1151;-73
2021/03/10 00:42:51;;;;;;;18.00;10.70;;;;;;;6.36;52.47;101430.41;350867;28;1291;-73
2021/03/10 00:43:02;;;;;;;17.55;10.63;;;;;;;6.31;51.77;101423.50;351004;28;1171;-71
2021/03/10 00:43:13;;;;;;;15.86;10.54;;;;;;;6.33;50.90;101424.34;350992;28;1067;-73
2021/03/10 00:43:24;;;;;;;15.65;10.40;;;;;;;6.34;52.60;101420.81;351033;28;1076;-73
2021/03/10 00:43:35;;;;;;;15.90;10.38;;;;;;;6.35;52.34;101427.81;350990;28;1073;-73
2021/03/10 00:43:47;;;;;;;15.00;9.93;;;;;;;6.35;51.85;101422.56;350901;28;1166;-72
2021/03/10 00:43:58;;;;;;;15.48;9.90;;;;;;;6.38;51.94;101427.75;351030;28;1271;-73
2021/03/10 00:44:09;;;;;;;15.57;9.93;;;;;;;6.36;51.28;101421.66;351013;28;1131;-72
2021/03/10 00:44:20;;;;;;;21.52;10.65;;;;;;;6.34;50.49;101416.44;350944;28;1914;-72
2021/03/10 00:44:31;;;;;;;22.17;10.90;;;;;;;6.35;52.31;101419.94;351018;28;1127;-73
2021/03/10 00:44:42;;;;;;;20.77;11.05;;;;;;;6.31;52.04;101415.66;350925;28;1089;-73
2021/03/10 00:44:53;;;;;;;15.38;10.93;;;;;;;6.30;51.64;101421.78;350787;28;1148;-73
2021/03/10 00:45:05;;;;;;;14.30;10.77;;;;;;;6.28;51.75;101416.56;350925;28;1069;-70
2021/03/10 00:45:16;;;;;;;15.23;10.68;;;;;;;6.31;51.15;101415.66;350942;28;1021;-72
2021/03/10 00:45:27;;;;;;;14.73;10.20;;;;;;;6.32;51.58;101422.59;350850;28;1141;-73
2021/03/10 00:45:39;;;;;;;14.05;10.20;;;;;;;6.32;50.84;101415.63;350790;28;1077;-73
2021/03/10 00:45:50;;;;;;;13.73;10.00;;;;;;;6.33;50.58;101416.47;350878;28;1186;-73
2021/03/10 00:46:01;;;;;;;15.93;10.00;;;;;;;6.32;52.42;101418.22;350918;28;1137;-72
2021/03/10 00:46:12;;;;;;;16.33;10.15;;;;;;;6.33;51.57;101417.31;350893;28;1081;-73
2021/03/10 00:46:24;;;;;;;16.46;10.78;;;;;;;6.35;52.19;101414.69;350889;28;1088;-73
2021/03/10 00:46:35;;;;;;;15.65;10.65;;;;;;;6.35;50.79;101417.31;350789;28;1117;-73
2021/03/10 00:46:46;;;;;;;15.93;10.43;;;;;;;6.35;52.25;101420.78;350814;28;1160;-72
2021/03/10 00:46:58;;;;;;;16.55;10.20;;;;;;;6.37;51.71;101412.88;351087;28;1076;-72
2021/03/10 00:47:09;;;;;;;16.45;10.35;;;;;;;6.38;50.70;101418.09;350980;28;1180;-72
2021/03/10 00:47:21;;;;;;;14.57;10.10;;;;;;;6.38;52.13;101412.00;350984;28;1089;-73
2021/03/10 00:47:32;;;;;;;13.90;10.27;;;;;;;6.39;52.37;101413.75;350926;28;1151;-73
2021/03/10 00:47:44;;;;;;;14.10;10.40;;;;;;;6.38;52.41;101415.47;350984;28;1173;-73
2021/03/10 00:47:59;;;;;;;14.48;10.30;;;;;;;6.38;52.14;101417.25;350930;28;1219;-72
2021/03/10 00:48:10;;;;;;;14.02;10.23;;;;;;;6.42;52.40;101421.56;349343;28;48150;-74
2021/03/10 00:48:23;;;;;;;14.73;10.30;;;;;;;6.42;52.12;101413.69;351012;28;1167;-73
2021/03/10 00:48:34;;;;;;;15.95;10.35;;;;;;;6.38;50.53;101415.47;350913;28;1353;-73
2021/03/10 00:48:45;;;;;;;19.00;10.63;;;;;;;6.36;51.54;101419.91;350915;28;1181;-73
2021/03/10 00:48:56;;;;;;;18.52;10.70;;;;;;;6.36;52.03;101421.66;350944;28;1168;-73
2021/03/10 00:49:07;;;;;;;16.30;10.55;;;;;;;6.38;51.84;101419.88;350973;28;1133;-73
2021/03/10 00:49:18;;;;;;;13.68;10.05;;;;;;;6.41;50.83;101417.19;350917;28;1180;-72
2021/03/10 00:49:30;;;;;;;13.05;10.07;;;;;;;6.44;51.16;101420.63;350950;28;1143;-73
2021/03/10 00:49:42;;;;;;;13.77;10.40;;;;;;;6.44;50.72;101420.63;351018;28;1064;-70
2021/03/10 00:49:54;;;;;;;16.45;10.73;;;;;;;6.38;50.84;101422.50;350943;28;1065;-73
2021/03/10 00:50:05;;;;;;;17.08;10.73;;;;;;;6.40;52.19;101424.22;351000;28;1228;-73
2021/03/10 00:50:19;;;;;;;17.23;10.57;;;;;;;6.39;52.00;101424.25;350933;28;1097;-73
2021/03/10 00:50:30;;;;;;;15.35;10.15;;;;;;;6.42;50.58;101418.94;350199;28;23967;-73
2021/03/10 00:50:41;;;;;;;15.35;10.02;;;;;;;6.42;51.39;101418.94;350977;28;1212;-73
2021/03/10 00:50:52;;;;;;;17.02;10.23;;;;;;;6.41;51.21;101423.28;350962;28;1183;-72
2021/03/10 00:51:03;;;;;;;16.80;10.45;;;;;;;6.43;51.22;101426.75;350931;28;1126;-72
2021/03/10 00:51:14;;;;;;;16.15;10.65;;;;;;;6.42;50.44;101425.03;350863;28;1131;-73
2021/03/10 00:51:25;;;;;;;16.85;10.90;;;;;;;6.41;51.32;101423.28;350909;28;1151;-74
2021/03/10 00:51:37;;;;;;;18.38;11.23;;;;;;;6.43;50.54;101426.75;351029;28;1020;-73
2021/03/10 00:51:48;;;;;;;17.80;11.32;;;;;;;6.40;51.25;101431.19;351020;28;1155;-73
2021/03/10 00:51:59;;;;;;;18.50;11.05;;;;;;;6.38;50.92;101430.38;350941;28;1130;-73
2021/03/10 00:52:11;;;;;;;18.63;10.52;;;;;;;6.36;51.19;101433.03;350936;28;1186;-73
2021/03/10 00:52:22;;;;;;;20.30;10.75;;;;;;;6.34;51.13;101429.56;350947;28;1438;-73
2021/03/10 00:52:33;;;;;;;19.67;10.70;;;;;;;6.30;51.41;101427.88;350997;28;1121;-72
2021/03/10 00:52:44;;;;;;;19.05;10.80;;;;;;;6.33;52.07;101430.44;350915;28;1216;-71
2021/03/10 00:52:58;;;;;;;18.23;10.75;;;;;;;6.35;50.77;101433.91;350808;28;1236;-73
2021/03/10 00:53:09;;;;;;;18.92;11.10;;;;;;;6.36;50.83;101437.41;350064;28;22821;-73
2021/03/10 00:53:20;;;;;;;18.55;10.90;;;;;;;6.35;52.03;101440.94;350939;28;1094;-73
2021/03/10 00:53:31;;;;;;;17.30;10.45;;;;;;;6.33;52.00;101435.69;350918;28;1068;-73
2021/03/10 00:53:42;;;;;;;18.20;10.60;;;;;;;6.35;52.26;101433.91;350870;28;998;-73
2021/03/10 00:53:54;;;;;;;18.30;10.80;;;;;;;6.36;51.53;101426.91;350938;28;1119;-73
2021/03/10 00:54:05;;;;;;;20.42;11.30;;;;;;;6.38;51.46;101433.84;350772;28;1141;-73
2021/03/10 00:54:16;;;;;;;20.13;11.02;;;;;;;6.38;51.52;101433.84;350887;28;1216;-73
2021/03/10 00:54:27;;;;;;;19.95;10.80;;;;;;;6.39;50.78;101434.75;350871;28;1057;-72